createdAt,value
2023-04-22T00:01:37.765Z,0
2023-04-22T00:07:57.819Z,0
2023-04-22T00:14:20.810Z,0
2023-04-22T00:20:40.813Z,0
2023-04-22T00:27:03.786Z,0
2023-04-22T00:33:23.889Z,0
2023-04-22T00:39:46.784Z,0
2023-04-22T00:46:06.828Z,0
2023-04-22T00:52:29.788Z,0
2023-04-22T00:58:49.807Z,0
2023-04-22T01:05:13.137Z,0
2023-04-22T01:11:32.818Z,0
2023-04-22T01:17:55.790Z,0
2023-04-22T01:24:15.882Z,0
2023-04-22T01:30:38.756Z,0
2023-04-22T01:36:58.850Z,0
2023-04-22T01:43:21.777Z,0
2023-04-22T01:49:42.324Z,0
2023-04-22T01:56:04.784Z,0
2023-04-22T02:02:24.943Z,0
2023-04-22T02:08:47.773Z,0
2023-04-22T02:15:07.798Z,0
2023-04-22T02:21:30.734Z,0
2023-04-22T02:27:50.823Z,0
2023-04-22T02:34:13.748Z,0
2023-04-22T02:40:33.826Z,0
2023-04-22T02:46:56.849Z,0
2023-04-22T02:53:16.800Z,0
2023-04-22T02:59:39.933Z,0
2023-04-22T03:05:59.804Z,0
2023-04-22T03:12:22.733Z,0
2023-04-22T03:18:42.808Z,0
2023-04-22T03:35:28.701Z,0
2023-04-22T03:41:48.745Z,0
2023-04-22T03:48:11.812Z,0
2023-04-22T03:54:31.763Z,0
2023-04-22T04:00:54.753Z,0
2023-04-22T04:07:14.723Z,0
2023-04-22T04:13:37.763Z,0
2023-04-22T04:19:58.549Z,0
2023-04-22T04:26:21.731Z,0
2023-04-22T04:32:41.810Z,0
2023-04-22T04:39:04.778Z,0
2023-04-22T04:45:24.784Z,0
2023-04-22T04:51:47.817Z,5.62
2023-04-22T04:58:07.761Z,5.62
2023-04-22T05:04:30.909Z,5.62
2023-04-22T05:10:50.868Z,5.62
2023-04-22T05:17:13.803Z,11.25
2023-04-22T05:23:33.765Z,16.88
2023-04-22T05:29:56.780Z,16.88
2023-04-22T05:36:16.741Z,16.88
2023-04-22T05:42:39.848Z,16.88
2023-04-22T05:48:59.765Z,22.5
2023-04-22T05:55:22.809Z,33.75
2023-04-22T06:01:42.772Z,22.5
2023-04-22T06:08:05.760Z,16.88
2023-04-22T06:14:25.774Z,22.5
2023-04-22T06:20:48.746Z,28.12
2023-04-22T06:27:08.847Z,28.12
2023-04-22T06:33:31.744Z,33.75
2023-04-22T06:39:51.744Z,28.12
2023-04-22T06:46:14.846Z,28.12
2023-04-22T06:52:34.730Z,39.38
2023-04-22T06:58:57.814Z,39.38
2023-04-22T07:05:17.800Z,33.75
2023-04-22T07:11:40.755Z,33.75
2023-04-22T07:18:01.057Z,33.75
2023-04-22T07:24:23.779Z,39.38
2023-04-22T07:30:43.744Z,39.38
2023-04-22T07:37:06.760Z,45
2023-04-22T07:43:27.039Z,45
2023-04-22T07:49:49.803Z,45
2023-04-22T07:56:09.758Z,50.62
2023-04-22T08:02:32.830Z,56.25
2023-04-22T08:08:52.773Z,61.88
2023-04-22T08:15:15.733Z,73.12
2023-04-22T08:21:35.786Z,67.5
2023-04-22T08:27:58.759Z,73.12
2023-04-22T08:34:18.790Z,78.75
2023-04-22T08:40:41.810Z,84.38
2023-04-22T08:47:02.982Z,78.75
2023-04-22T09:11:00.706Z,73.12
2023-04-22T09:17:23.786Z,73.12
2023-04-22T09:23:43.730Z,50.62
2023-04-22T09:30:06.812Z,67.5
2023-04-22T09:36:26.745Z,84.38
2023-04-22T09:42:49.771Z,73.12
2023-04-22T09:49:09.775Z,95.62
2023-04-22T09:55:32.732Z,95.62
2023-04-22T10:01:52.751Z,95.62
2023-04-22T10:08:15.815Z,95.62
2023-04-22T10:14:35.779Z,123.75
2023-04-22T10:20:58.751Z,106.88
2023-04-22T10:27:18.754Z,61.88
2023-04-22T10:33:41.758Z,90
2023-04-22T10:40:01.744Z,123.75
2023-04-22T10:46:24.794Z,95.62
2023-04-22T10:52:44.733Z,106.88
2023-04-22T10:59:07.756Z,101.25
2023-04-22T11:05:27.821Z,146.25
2023-04-22T11:11:50.734Z,106.88
2023-04-22T11:18:10.776Z,101.25
2023-04-22T11:24:33.769Z,101.25
2023-04-22T11:30:53.737Z,112.5
2023-04-22T11:37:16.772Z,135
2023-04-22T11:43:36.751Z,123.75
2023-04-22T11:49:59.791Z,106.88
2023-04-22T11:56:19.747Z,95.62
2023-04-22T12:02:42.946Z,101.25
2023-04-22T12:09:02.728Z,90
2023-04-22T12:15:25.733Z,101.25
2023-04-22T12:21:45.786Z,84.38
2023-04-22T12:28:08.731Z,84.38
2023-04-22T12:34:28.787Z,118.12
2023-04-22T12:40:51.766Z,123.75
2023-04-22T12:47:11.732Z,146.25
2023-04-22T12:53:34.759Z,101.25
2023-04-22T12:59:54.808Z,78.75
2023-04-22T13:06:17.785Z,67.5
2023-04-22T13:12:38.506Z,50.62
2023-04-22T13:19:00.812Z,39.38
2023-04-22T13:25:20.764Z,39.38
2023-04-22T13:31:43.751Z,61.88
2023-04-22T13:38:03.783Z,45
2023-04-22T13:44:26.739Z,28.12
2023-04-22T13:50:46.770Z,16.88
2023-04-22T13:57:09.756Z,22.5
2023-04-22T14:03:29.832Z,22.5
2023-04-22T14:09:52.778Z,16.88
2023-04-22T14:16:12.766Z,16.88
2023-04-22T14:22:35.745Z,11.25
2023-04-22T14:28:55.762Z,16.88
2023-04-22T14:35:18.757Z,28.12
2023-04-22T14:41:38.783Z,45
2023-04-22T15:05:03.782Z,33.75
2023-04-22T15:11:26.740Z,28.12
2023-04-22T15:17:46.839Z,22.5
2023-04-22T15:24:09.780Z,22.5
2023-04-22T15:30:29.742Z,22.5
2023-04-22T15:36:52.757Z,22.5
2023-04-22T15:43:12.848Z,16.88
2023-04-22T15:49:35.766Z,16.88
2023-04-22T15:55:55.764Z,5.62
2023-04-22T16:02:18.865Z,11.25
2023-04-22T16:08:38.769Z,5.62
2023-04-22T16:15:01.748Z,5.62
2023-04-22T16:21:21.788Z,0
2023-04-22T16:27:44.729Z,5.62
2023-04-22T16:34:04.749Z,5.62
2023-04-22T16:40:27.808Z,5.62
2023-04-22T16:46:47.733Z,0
2023-04-22T16:53:10.764Z,0
2023-04-22T16:59:30.755Z,0
2023-04-22T17:05:53.744Z,0
2023-04-22T17:12:13.771Z,0
2023-04-22T17:18:36.751Z,0
2023-04-22T17:24:56.758Z,0
2023-04-22T17:31:19.782Z,0
2023-04-22T17:37:39.767Z,0
2023-04-22T17:44:02.786Z,0
2023-04-22T17:50:22.739Z,0
2023-04-22T17:56:45.773Z,0
2023-04-22T18:03:05.973Z,0
2023-04-22T18:09:28.783Z,0
2023-04-22T18:15:48.798Z,0
2023-04-22T18:22:11.750Z,0
2023-04-22T18:28:31.744Z,0
2023-04-22T18:34:54.758Z,0
2023-04-22T18:41:14.720Z,0
2023-04-22T18:47:37.782Z,0
2023-04-22T18:53:57.773Z,0
2023-04-22T19:00:20.745Z,0
2023-04-22T19:06:40.756Z,0
2023-04-22T19:13:03.754Z,0
2023-04-22T19:19:23.756Z,0
2023-04-22T19:25:46.767Z,0
2023-04-22T19:32:06.751Z,0
2023-04-22T19:38:29.787Z,0
2023-04-22T19:44:49.712Z,0
2023-04-22T19:51:12.792Z,0
2023-04-22T19:57:32.729Z,0
2023-04-22T20:03:56.170Z,0
2023-04-22T20:10:15.788Z,0
2023-04-22T20:16:38.783Z,0
2023-04-22T20:22:58.728Z,0
2023-04-22T20:29:21.795Z,0
2023-04-22T20:44:52.695Z,0
2023-04-22T20:51:12.748Z,0
2023-04-22T20:57:35.743Z,0
2023-04-22T21:03:56.023Z,0
2023-04-22T21:10:18.741Z,0
2023-04-22T21:16:38.781Z,0
2023-04-22T21:23:01.813Z,0
2023-04-22T21:29:21.732Z,0
2023-04-22T21:35:44.766Z,0
2023-04-22T21:42:04.776Z,0
2023-04-22T21:48:27.728Z,0
2023-04-22T21:54:47.781Z,0
2023-04-22T22:20:22.827Z,0
2023-04-22T22:26:42.753Z,0
2023-04-22T22:33:05.797Z,0
2023-04-22T22:39:25.791Z,0
2023-04-22T22:45:48.768Z,0
2023-04-22T22:52:08.785Z,0
2023-04-22T22:58:31.830Z,0
2023-04-22T23:04:51.852Z,0
2023-04-22T23:11:14.824Z,0
2023-04-22T23:17:34.802Z,0
2023-04-22T23:23:57.823Z,0
2023-04-22T23:30:17.764Z,0
2023-04-22T23:36:40.825Z,0
2023-04-22T23:43:00.774Z,0
2023-04-22T23:49:23.819Z,0
2023-04-22T23:55:43.824Z,0
